sensor_id;sensor_type;location;lat;lon;timestamp;temperature;humidity
12839;DHT22;6486;51.034;5.262;2023-07-28T00:01:03;19.20;91.40
12839;DHT22;6486;51.034;5.262;2023-07-28T00:03:29;19.20;91.40
12839;DHT22;6486;51.034;5.262;2023-07-28T00:05:54;19.20;91.40
12839;DHT22;6486;51.034;5.262;2023-07-28T00:08:20;19.30;91.40
12839;DHT22;6486;51.034;5.262;2023-07-28T00:10:46;19.30;91.40
12839;DHT22;6486;51.034;5.262;2023-07-28T00:13:11;19.20;91.40
12839;DHT22;6486;51.034;5.262;2023-07-28T00:15:37;19.20;91.50
12839;DHT22;6486;51.034;5.262;2023-07-28T00:18:03;19.20;91.50
12839;DHT22;6486;51.034;5.262;2023-07-28T00:20:28;19.20;91.60
12839;DHT22;6486;51.034;5.262;2023-07-28T00:22:54;19.20;91.60
12839;DHT22;6486;51.034;5.262;2023-07-28T00:25:20;19.20;91.60
12839;DHT22;6486;51.034;5.262;2023-07-28T00:27:46;19.20;91.60
12839;DHT22;6486;51.034;5.262;2023-07-28T00:30:12;19.20;91.60
12839;DHT22;6486;51.034;5.262;2023-07-28T00:32:38;19.20;91.60
12839;DHT22;6486;51.034;5.262;2023-07-28T00:35:04;19.20;91.60
12839;DHT22;6486;51.034;5.262;2023-07-28T00:37:30;19.20;91.60
12839;DHT22;6486;51.034;5.262;2023-07-28T00:39:55;19.30;91.70
12839;DHT22;6486;51.034;5.262;2023-07-28T00:42:21;19.20;92.00
12839;DHT22;6486;51.034;5.262;2023-07-28T00:44:47;19.20;91.70
12839;DHT22;6486;51.034;5.262;2023-07-28T00:47:13;19.20;91.80
12839;DHT22;6486;51.034;5.262;2023-07-28T00:49:40;19.20;91.80
12839;DHT22;6486;51.034;5.262;2023-07-28T00:52:07;19.20;91.90
12839;DHT22;6486;51.034;5.262;2023-07-28T00:54:33;19.20;91.90
12839;DHT22;6486;51.034;5.262;2023-07-28T00:56:59;19.20;91.90
12839;DHT22;6486;51.034;5.262;2023-07-28T00:59:26;19.20;91.90
12839;DHT22;6486;51.034;5.262;2023-07-28T01:01:52;19.20;91.90
12839;DHT22;6486;51.034;5.262;2023-07-28T01:04:18;19.20;91.90
12839;DHT22;6486;51.034;5.262;2023-07-28T01:09:43;19.20;91.90
12839;DHT22;6486;51.034;5.262;2023-07-28T01:12:12;19.20;91.90
12839;DHT22;6486;51.034;5.262;2023-07-28T01:14:37;19.30;91.90
12839;DHT22;6486;51.034;5.262;2023-07-28T01:17:03;19.30;91.90
12839;DHT22;6486;51.034;5.262;2023-07-28T01:19:29;19.30;91.90
12839;DHT22;6486;51.034;5.262;2023-07-28T01:27:45;19.30;91.90
12839;DHT22;6486;51.034;5.262;2023-07-28T01:30:11;19.30;91.80
12839;DHT22;6486;51.034;5.262;2023-07-28T01:32:37;19.30;92.10
12839;DHT22;6486;51.034;5.262;2023-07-28T01:35:03;19.30;91.80
12839;DHT22;6486;51.034;5.262;2023-07-28T01:37:29;19.40;91.80
12839;DHT22;6486;51.034;5.262;2023-07-28T01:39:55;19.40;91.80
12839;DHT22;6486;51.034;5.262;2023-07-28T01:42:23;19.40;91.80
12839;DHT22;6486;51.034;5.262;2023-07-28T01:44:49;19.30;91.80
12839;DHT22;6486;51.034;5.262;2023-07-28T01:47:15;19.30;91.90
12839;DHT22;6486;51.034;5.262;2023-07-28T01:49:41;19.30;91.90
12839;DHT22;6486;51.034;5.262;2023-07-28T01:52:06;19.30;91.90
12839;DHT22;6486;51.034;5.262;2023-07-28T01:54:32;19.30;91.90
12839;DHT22;6486;51.034;5.262;2023-07-28T01:56:58;19.30;92.00
12839;DHT22;6486;51.034;5.262;2023-07-28T01:59:23;19.30;91.90
12839;DHT22;6486;51.034;5.262;2023-07-28T02:01:49;19.40;92.00
12839;DHT22;6486;51.034;5.262;2023-07-28T02:04:14;19.40;92.00
12839;DHT22;6486;51.034;5.262;2023-07-28T02:06:41;19.40;92.00
12839;DHT22;6486;51.034;5.262;2023-07-28T02:09:07;19.40;92.00
12839;DHT22;6486;51.034;5.262;2023-07-28T02:11:33;19.30;92.00
12839;DHT22;6486;51.034;5.262;2023-07-28T02:13:58;19.30;92.00
12839;DHT22;6486;51.034;5.262;2023-07-28T02:16:24;19.30;92.00
12839;DHT22;6486;51.034;5.262;2023-07-28T02:18:53;19.30;92.00
12839;DHT22;6486;51.034;5.262;2023-07-28T02:21:19;19.40;92.10
12839;DHT22;6486;51.034;5.262;2023-07-28T02:23:45;19.40;92.00
12839;DHT22;6486;51.034;5.262;2023-07-28T02:26:10;19.40;92.10
12839;DHT22;6486;51.034;5.262;2023-07-28T02:28:36;19.40;92.10
12839;DHT22;6486;51.034;5.262;2023-07-28T02:31:02;19.40;92.10
12839;DHT22;6486;51.034;5.262;2023-07-28T02:33:28;19.40;92.10
12839;DHT22;6486;51.034;5.262;2023-07-28T02:35:56;19.40;92.10
12839;DHT22;6486;51.034;5.262;2023-07-28T02:38:22;19.40;92.10
12839;DHT22;6486;51.034;5.262;2023-07-28T02:40:47;19.40;92.20
12839;DHT22;6486;51.034;5.262;2023-07-28T02:43:13;19.40;92.10
12839;DHT22;6486;51.034;5.262;2023-07-28T02:45:38;19.40;92.10
12839;DHT22;6486;51.034;5.262;2023-07-28T02:48:04;19.40;92.20
12839;DHT22;6486;51.034;5.262;2023-07-28T02:50:30;19.40;92.20
12839;DHT22;6486;51.034;5.262;2023-07-28T02:52:56;19.30;92.30
12839;DHT22;6486;51.034;5.262;2023-07-28T02:55:21;19.30;92.30
12839;DHT22;6486;51.034;5.262;2023-07-28T02:57:47;19.30;92.30
12839;DHT22;6486;51.034;5.262;2023-07-28T03:00:13;19.30;92.40
12839;DHT22;6486;51.034;5.262;2023-07-28T03:02:39;19.30;92.40
12839;DHT22;6486;51.034;5.262;2023-07-28T03:05:05;19.30;92.40
12839;DHT22;6486;51.034;5.262;2023-07-28T03:07:31;19.40;92.50
12839;DHT22;6486;51.034;5.262;2023-07-28T03:09:57;19.30;92.50
12839;DHT22;6486;51.034;5.262;2023-07-28T03:12:23;19.30;92.60
12839;DHT22;6486;51.034;5.262;2023-07-28T03:14:48;19.30;92.70
12839;DHT22;6486;51.034;5.262;2023-07-28T03:17:14;19.30;92.70
12839;DHT22;6486;51.034;5.262;2023-07-28T03:19:39;19.30;92.60
12839;DHT22;6486;51.034;5.262;2023-07-28T03:22:05;19.40;92.60
12839;DHT22;6486;51.034;5.262;2023-07-28T03:24:31;19.40;92.60
12839;DHT22;6486;51.034;5.262;2023-07-28T03:26:56;19.30;92.60
12839;DHT22;6486;51.034;5.262;2023-07-28T03:29:22;19.30;92.70
12839;DHT22;6486;51.034;5.262;2023-07-28T03:31:48;19.30;92.70
12839;DHT22;6486;51.034;5.262;2023-07-28T03:34:13;19.40;92.80
12839;DHT22;6486;51.034;5.262;2023-07-28T03:36:39;19.40;92.70
12839;DHT22;6486;51.034;5.262;2023-07-28T03:39:05;19.40;92.70
12839;DHT22;6486;51.034;5.262;2023-07-28T03:41:30;19.40;92.70
12839;DHT22;6486;51.034;5.262;2023-07-28T03:43:56;19.40;92.80
12839;DHT22;6486;51.034;5.262;2023-07-28T03:46:22;19.40;92.80
12839;DHT22;6486;51.034;5.262;2023-07-28T03:48:48;19.40;92.70
12839;DHT22;6486;51.034;5.262;2023-07-28T03:51:13;19.40;92.70
12839;DHT22;6486;51.034;5.262;2023-07-28T03:53:39;19.40;92.70
12839;DHT22;6486;51.034;5.262;2023-07-28T03:56:05;19.40;92.60
12839;DHT22;6486;51.034;5.262;2023-07-28T03:58:31;19.40;92.60
12839;DHT22;6486;51.034;5.262;2023-07-28T04:00:56;19.50;92.70
12839;DHT22;6486;51.034;5.262;2023-07-28T04:03:22;19.50;92.70
12839;DHT22;6486;51.034;5.262;2023-07-28T04:05:48;19.40;92.70
12839;DHT22;6486;51.034;5.262;2023-07-28T04:08:14;19.40;92.80
12839;DHT22;6486;51.034;5.262;2023-07-28T04:10:39;19.40;92.80
12839;DHT22;6486;51.034;5.262;2023-07-28T04:13:05;19.40;92.80
12839;DHT22;6486;51.034;5.262;2023-07-28T04:15:30;19.50;92.80
12839;DHT22;6486;51.034;5.262;2023-07-28T04:17:56;19.50;92.80
12839;DHT22;6486;51.034;5.262;2023-07-28T04:20:22;19.40;92.70
12839;DHT22;6486;51.034;5.262;2023-07-28T04:22:47;19.50;92.80
12839;DHT22;6486;51.034;5.262;2023-07-28T04:25:13;19.50;92.80
12839;DHT22;6486;51.034;5.262;2023-07-28T04:27:39;19.50;92.80
12839;DHT22;6486;51.034;5.262;2023-07-28T04:30:05;19.50;92.80
12839;DHT22;6486;51.034;5.262;2023-07-28T04:32:31;19.50;92.90
12839;DHT22;6486;51.034;5.262;2023-07-28T04:34:57;19.50;92.90
12839;DHT22;6486;51.034;5.262;2023-07-28T04:37:22;19.50;92.90
12839;DHT22;6486;51.034;5.262;2023-07-28T04:39:48;19.50;92.90
12839;DHT22;6486;51.034;5.262;2023-07-28T04:42:14;19.50;92.90
12839;DHT22;6486;51.034;5.262;2023-07-28T04:44:39;19.50;92.90
12839;DHT22;6486;51.034;5.262;2023-07-28T04:47:06;19.50;92.90
12839;DHT22;6486;51.034;5.262;2023-07-28T04:49:31;19.50;93.00
12839;DHT22;6486;51.034;5.262;2023-07-28T04:51:57;19.50;93.00
12839;DHT22;6486;51.034;5.262;2023-07-28T04:54:23;19.50;93.00
12839;DHT22;6486;51.034;5.262;2023-07-28T04:56:48;19.50;93.10
12839;DHT22;6486;51.034;5.262;2023-07-28T04:59:18;19.50;93.00
12839;DHT22;6486;51.034;5.262;2023-07-28T05:01:44;19.50;93.10
12839;DHT22;6486;51.034;5.262;2023-07-28T05:04:10;19.50;93.10
12839;DHT22;6486;51.034;5.262;2023-07-28T05:06:35;19.50;93.10
12839;DHT22;6486;51.034;5.262;2023-07-28T05:09:01;19.50;93.40
12839;DHT22;6486;51.034;5.262;2023-07-28T05:11:27;19.60;93.10
12839;DHT22;6486;51.034;5.262;2023-07-28T05:13:53;19.50;93.10
12839;DHT22;6486;51.034;5.262;2023-07-28T05:16:18;19.50;93.10
12839;DHT22;6486;51.034;5.262;2023-07-28T05:18:44;19.50;93.10
12839;DHT22;6486;51.034;5.262;2023-07-28T05:21:10;19.50;93.10
12839;DHT22;6486;51.034;5.262;2023-07-28T05:23:35;19.50;93.20
12839;DHT22;6486;51.034;5.262;2023-07-28T05:26:01;19.50;93.20
12839;DHT22;6486;51.034;5.262;2023-07-28T05:28:27;19.50;93.20
12839;DHT22;6486;51.034;5.262;2023-07-28T05:30:52;19.60;93.20
12839;DHT22;6486;51.034;5.262;2023-07-28T05:33:18;19.60;93.20
12839;DHT22;6486;51.034;5.262;2023-07-28T05:35:43;19.60;93.20
12839;DHT22;6486;51.034;5.262;2023-07-28T05:38:09;19.60;93.20
12839;DHT22;6486;51.034;5.262;2023-07-28T05:40:35;19.60;93.20
12839;DHT22;6486;51.034;5.262;2023-07-28T05:43:00;19.60;93.30
12839;DHT22;6486;51.034;5.262;2023-07-28T05:45:26;19.60;93.30
12839;DHT22;6486;51.034;5.262;2023-07-28T05:47:52;19.60;93.40
12839;DHT22;6486;51.034;5.262;2023-07-28T05:50:17;19.60;93.30
12839;DHT22;6486;51.034;5.262;2023-07-28T05:52:43;19.60;93.30
12839;DHT22;6486;51.034;5.262;2023-07-28T05:55:09;19.60;93.30
12839;DHT22;6486;51.034;5.262;2023-07-28T05:57:34;19.60;93.30
12839;DHT22;6486;51.034;5.262;2023-07-28T06:00:00;19.70;93.30
12839;DHT22;6486;51.034;5.262;2023-07-28T06:02:26;19.70;93.20
12839;DHT22;6486;51.034;5.262;2023-07-28T06:04:53;19.70;93.20
12839;DHT22;6486;51.034;5.262;2023-07-28T06:07:18;19.70;93.20
12839;DHT22;6486;51.034;5.262;2023-07-28T06:09:44;19.80;93.20
12839;DHT22;6486;51.034;5.262;2023-07-28T06:12:10;19.80;93.20
12839;DHT22;6486;51.034;5.262;2023-07-28T06:14:35;19.80;93.20
12839;DHT22;6486;51.034;5.262;2023-07-28T06:17:01;19.80;93.30
12839;DHT22;6486;51.034;5.262;2023-07-28T06:19:27;19.80;93.30
12839;DHT22;6486;51.034;5.262;2023-07-28T06:21:53;19.80;93.30
12839;DHT22;6486;51.034;5.262;2023-07-28T06:24:19;19.80;93.20
12839;DHT22;6486;51.034;5.262;2023-07-28T06:26:44;19.90;93.20
12839;DHT22;6486;51.034;5.262;2023-07-28T06:29:10;19.90;93.10
12839;DHT22;6486;51.034;5.262;2023-07-28T06:31:36;19.90;93.10
12839;DHT22;6486;51.034;5.262;2023-07-28T06:34:01;19.90;93.00
12839;DHT22;6486;51.034;5.262;2023-07-28T06:36:27;20.00;93.00
12839;DHT22;6486;51.034;5.262;2023-07-28T06:38:53;20.00;92.90
12839;DHT22;6486;51.034;5.262;2023-07-28T06:41:21;20.00;92.90
12839;DHT22;6486;51.034;5.262;2023-07-28T06:43:46;20.00;93.00
12839;DHT22;6486;51.034;5.262;2023-07-28T06:46:14;20.00;93.00
12839;DHT22;6486;51.034;5.262;2023-07-28T06:48:40;20.10;93.00
12839;DHT22;6486;51.034;5.262;2023-07-28T06:51:06;20.10;93.00
12839;DHT22;6486;51.034;5.262;2023-07-28T06:53:32;20.10;92.90
12839;DHT22;6486;51.034;5.262;2023-07-28T06:55:59;20.10;92.90
12839;DHT22;6486;51.034;5.262;2023-07-28T06:58:25;20.10;93.00
12839;DHT22;6486;51.034;5.262;2023-07-28T07:00:51;20.20;93.10
12839;DHT22;6486;51.034;5.262;2023-07-28T07:03:17;20.20;93.10
12839;DHT22;6486;51.034;5.262;2023-07-28T07:05:42;20.20;93.10
12839;DHT22;6486;51.034;5.262;2023-07-28T07:08:09;20.20;93.10
12839;DHT22;6486;51.034;5.262;2023-07-28T07:10:34;20.20;93.00
12839;DHT22;6486;51.034;5.262;2023-07-28T07:13:00;20.30;93.00
12839;DHT22;6486;51.034;5.262;2023-07-28T07:15:26;20.30;93.00
12839;DHT22;6486;51.034;5.262;2023-07-28T07:17:51;20.40;93.00
12839;DHT22;6486;51.034;5.262;2023-07-28T07:20:17;20.40;93.00
12839;DHT22;6486;51.034;5.262;2023-07-28T07:22:43;20.50;93.00
12839;DHT22;6486;51.034;5.262;2023-07-28T07:25:08;20.60;93.00
12839;DHT22;6486;51.034;5.262;2023-07-28T07:27:34;20.70;92.90
12839;DHT22;6486;51.034;5.262;2023-07-28T07:29:59;20.70;92.80
12839;DHT22;6486;51.034;5.262;2023-07-28T07:32:25;20.80;92.90
12839;DHT22;6486;51.034;5.262;2023-07-28T07:34:50;20.90;92.80
12839;DHT22;6486;51.034;5.262;2023-07-28T07:37:18;21.00;92.80
12839;DHT22;6486;51.034;5.262;2023-07-28T07:39:44;21.00;92.70
12839;DHT22;6486;51.034;5.262;2023-07-28T07:42:10;21.10;92.70
12839;DHT22;6486;51.034;5.262;2023-07-28T07:44:39;21.20;92.70
12839;DHT22;6486;51.034;5.262;2023-07-28T07:47:14;21.20;92.60
12839;DHT22;6486;51.034;5.262;2023-07-28T07:49:41;21.20;92.50
12839;DHT22;6486;51.034;5.262;2023-07-28T07:52:07;21.20;92.40
12839;DHT22;6486;51.034;5.262;2023-07-28T07:54:34;21.30;92.50
12839;DHT22;6486;51.034;5.262;2023-07-28T07:57:00;21.30;92.40
12839;DHT22;6486;51.034;5.262;2023-07-28T07:59:25;21.30;92.30
12839;DHT22;6486;51.034;5.262;2023-07-28T08:01:53;21.30;92.30
12839;DHT22;6486;51.034;5.262;2023-07-28T08:04:19;21.40;92.30
12839;DHT22;6486;51.034;5.262;2023-07-28T08:06:45;21.50;92.10
12839;DHT22;6486;51.034;5.262;2023-07-28T08:09:10;21.60;91.90
12839;DHT22;6486;51.034;5.262;2023-07-28T08:11:36;21.60;91.90
12839;DHT22;6486;51.034;5.262;2023-07-28T08:14:02;21.60;91.90
12839;DHT22;6486;51.034;5.262;2023-07-28T08:16:27;21.60;91.80
12839;DHT22;6486;51.034;5.262;2023-07-28T08:18:53;21.60;91.80
12839;DHT22;6486;51.034;5.262;2023-07-28T08:21:19;21.60;91.70
12839;DHT22;6486;51.034;5.262;2023-07-28T08:23:45;21.60;91.70
12839;DHT22;6486;51.034;5.262;2023-07-28T08:26:10;21.70;91.70
12839;DHT22;6486;51.034;5.262;2023-07-28T08:28:36;21.70;91.60
12839;DHT22;6486;51.034;5.262;2023-07-28T08:31:02;21.70;91.40
12839;DHT22;6486;51.034;5.262;2023-07-28T08:33:29;21.70;91.40
12839;DHT22;6486;51.034;5.262;2023-07-28T08:35:54;21.60;91.40
12839;DHT22;6486;51.034;5.262;2023-07-28T08:38:20;21.60;91.40
12839;DHT22;6486;51.034;5.262;2023-07-28T08:40:46;21.50;91.20
12839;DHT22;6486;51.034;5.262;2023-07-28T08:43:11;21.50;91.10
12839;DHT22;6486;51.034;5.262;2023-07-28T08:45:37;21.40;91.10
12839;DHT22;6486;51.034;5.262;2023-07-28T08:48:03;21.40;91.10
12839;DHT22;6486;51.034;5.262;2023-07-28T08:50:29;21.40;91.30
12839;DHT22;6486;51.034;5.262;2023-07-28T08:52:56;21.50;91.30
12839;DHT22;6486;51.034;5.262;2023-07-28T08:55:22;21.60;91.30
12839;DHT22;6486;51.034;5.262;2023-07-28T08:57:48;21.70;91.30
12839;DHT22;6486;51.034;5.262;2023-07-28T09:00:14;21.80;91.10
12839;DHT22;6486;51.034;5.262;2023-07-28T09:02:41;21.90;91.10
12839;DHT22;6486;51.034;5.262;2023-07-28T09:05:19;22.00;91.00
12839;DHT22;6486;51.034;5.262;2023-07-28T09:07:46;22.10;90.90
12839;DHT22;6486;51.034;5.262;2023-07-28T09:10:13;22.10;90.90
12839;DHT22;6486;51.034;5.262;2023-07-28T09:12:48;22.20;90.90
12839;DHT22;6486;51.034;5.262;2023-07-28T09:15:14;22.30;90.90
12839;DHT22;6486;51.034;5.262;2023-07-28T09:17:42;22.40;90.70
12839;DHT22;6486;51.034;5.262;2023-07-28T09:20:15;22.50;90.60
12839;DHT22;6486;51.034;5.262;2023-07-28T09:22:44;22.60;90.40
12839;DHT22;6486;51.034;5.262;2023-07-28T09:25:12;22.70;90.30
12839;DHT22;6486;51.034;5.262;2023-07-28T09:27:38;22.90;90.20
12839;DHT22;6486;51.034;5.262;2023-07-28T09:30:04;23.10;90.00
12839;DHT22;6486;51.034;5.262;2023-07-28T09:32:32;23.50;89.60
12839;DHT22;6486;51.034;5.262;2023-07-28T09:35:12;23.60;88.30
12839;DHT22;6486;51.034;5.262;2023-07-28T09:37:40;23.70;87.80
12839;DHT22;6486;51.034;5.262;2023-07-28T09:40:11;23.70;87.30
12839;DHT22;6486;51.034;5.262;2023-07-28T09:42:38;23.80;86.40
12839;DHT22;6486;51.034;5.262;2023-07-28T09:45:05;23.90;85.10
12839;DHT22;6486;51.034;5.262;2023-07-28T09:47:36;23.90;84.70
12839;DHT22;6486;51.034;5.262;2023-07-28T09:50:04;23.80;85.10
12839;DHT22;6486;51.034;5.262;2023-07-28T09:52:33;23.80;85.20
12839;DHT22;6486;51.034;5.262;2023-07-28T09:55:05;23.70;85.20
12839;DHT22;6486;51.034;5.262;2023-07-28T09:57:33;23.60;85.40
12839;DHT22;6486;51.034;5.262;2023-07-28T10:00:02;23.50;85.00
12839;DHT22;6486;51.034;5.262;2023-07-28T10:02:29;23.30;85.00
12839;DHT22;6486;51.034;5.262;2023-07-28T10:04:55;23.20;85.10
12839;DHT22;6486;51.034;5.262;2023-07-28T10:07:21;23.10;85.20
12839;DHT22;6486;51.034;5.262;2023-07-28T10:09:47;23.30;85.30
12839;DHT22;6486;51.034;5.262;2023-07-28T10:12:18;23.50;84.90
12839;DHT22;6486;51.034;5.262;2023-07-28T10:14:44;23.40;84.90
12839;DHT22;6486;51.034;5.262;2023-07-28T10:17:16;23.30;85.00
12839;DHT22;6486;51.034;5.262;2023-07-28T10:19:42;23.20;85.00
12839;DHT22;6486;51.034;5.262;2023-07-28T10:22:10;23.20;85.20
12839;DHT22;6486;51.034;5.262;2023-07-28T10:24:51;23.10;85.10
12839;DHT22;6486;51.034;5.262;2023-07-28T10:27:37;22.90;84.90
12839;DHT22;6486;51.034;5.262;2023-07-28T10:30:13;22.80;85.00
12839;DHT22;6486;51.034;5.262;2023-07-28T10:32:40;22.80;85.20
12839;DHT22;6486;51.034;5.262;2023-07-28T10:37:40;22.60;85.20
12839;DHT22;6486;51.034;5.262;2023-07-28T10:40:33;22.60;85.50
12839;DHT22;6486;51.034;5.262;2023-07-28T10:43:04;22.50;85.60
12839;DHT22;6486;51.034;5.262;2023-07-28T10:45:31;22.50;85.60
12839;DHT22;6486;51.034;5.262;2023-07-28T10:47:58;22.40;85.60
12839;DHT22;6486;51.034;5.262;2023-07-28T10:50:32;22.30;85.80
12839;DHT22;6486;51.034;5.262;2023-07-28T10:52:57;22.30;86.10
12839;DHT22;6486;51.034;5.262;2023-07-28T10:55:25;22.30;86.20
12839;DHT22;6486;51.034;5.262;2023-07-28T10:57:53;22.40;86.50
12839;DHT22;6486;51.034;5.262;2023-07-28T11:00:21;22.50;86.60
12839;DHT22;6486;51.034;5.262;2023-07-28T11:02:51;22.60;86.50
12839;DHT22;6486;51.034;5.262;2023-07-28T11:05:22;22.80;86.40
12839;DHT22;6486;51.034;5.262;2023-07-28T11:07:50;22.90;86.40
12839;DHT22;6486;51.034;5.262;2023-07-28T11:10:15;23.00;86.10
12839;DHT22;6486;51.034;5.262;2023-07-28T11:12:46;23.00;86.00
12839;DHT22;6486;51.034;5.262;2023-07-28T11:15:13;23.00;86.20
12839;DHT22;6486;51.034;5.262;2023-07-28T11:17:50;23.00;86.30
12839;DHT22;6486;51.034;5.262;2023-07-28T11:20:21;23.00;86.40
12839;DHT22;6486;51.034;5.262;2023-07-28T11:23:00;23.00;87.30
12839;DHT22;6486;51.034;5.262;2023-07-28T11:25:27;23.00;86.70
12839;DHT22;6486;51.034;5.262;2023-07-28T11:27:54;22.90;86.90
12839;DHT22;6486;51.034;5.262;2023-07-28T11:30:21;22.90;87.20
12839;DHT22;6486;51.034;5.262;2023-07-28T11:32:49;22.90;87.30
12839;DHT22;6486;51.034;5.262;2023-07-28T11:35:16;23.00;87.30
12839;DHT22;6486;51.034;5.262;2023-07-28T11:37:43;23.10;87.20
12839;DHT22;6486;51.034;5.262;2023-07-28T11:40:10;23.20;87.10
12839;DHT22;6486;51.034;5.262;2023-07-28T11:42:41;23.30;87.20
12839;DHT22;6486;51.034;5.262;2023-07-28T11:45:10;23.40;87.10
12839;DHT22;6486;51.034;5.262;2023-07-28T11:47:37;23.40;87.10
12839;DHT22;6486;51.034;5.262;2023-07-28T11:50:03;23.40;87.00
12839;DHT22;6486;51.034;5.262;2023-07-28T11:52:37;23.40;87.20
12839;DHT22;6486;51.034;5.262;2023-07-28T11:55:06;23.40;87.30
12839;DHT22;6486;51.034;5.262;2023-07-28T11:57:32;23.30;87.10
12839;DHT22;6486;51.034;5.262;2023-07-28T11:59:59;23.20;87.20
12839;DHT22;6486;51.034;5.262;2023-07-28T12:02:29;23.10;87.10
12839;DHT22;6486;51.034;5.262;2023-07-28T12:04:55;23.10;87.20
12839;DHT22;6486;51.034;5.262;2023-07-28T12:07:33;23.00;87.30
12839;DHT22;6486;51.034;5.262;2023-07-28T12:10:04;23.00;87.70
12839;DHT22;6486;51.034;5.262;2023-07-28T12:12:40;22.90;88.40
12839;DHT22;6486;51.034;5.262;2023-07-28T12:15:27;22.90;87.90
12839;DHT22;6486;51.034;5.262;2023-07-28T12:18:15;22.90;88.00
12839;DHT22;6486;51.034;5.262;2023-07-28T12:20:48;22.90;87.90
12839;DHT22;6486;51.034;5.262;2023-07-28T12:23:20;22.90;87.80
12839;DHT22;6486;51.034;5.262;2023-07-28T12:25:46;23.00;88.00
12839;DHT22;6486;51.034;5.262;2023-07-28T12:28:12;23.10;88.10
12839;DHT22;6486;51.034;5.262;2023-07-28T12:30:38;23.20;88.20
12839;DHT22;6486;51.034;5.262;2023-07-28T12:33:05;23.20;88.10
12839;DHT22;6486;51.034;5.262;2023-07-28T12:35:32;23.20;88.10
12839;DHT22;6486;51.034;5.262;2023-07-28T12:38:03;23.30;88.30
12839;DHT22;6486;51.034;5.262;2023-07-28T12:40:33;23.40;88.40
12839;DHT22;6486;51.034;5.262;2023-07-28T12:43:00;23.50;88.20
12839;DHT22;6486;51.034;5.262;2023-07-28T12:45:26;23.50;87.50
12839;DHT22;6486;51.034;5.262;2023-07-28T12:47:53;23.40;87.40
12839;DHT22;6486;51.034;5.262;2023-07-28T12:50:19;23.30;87.60
12839;DHT22;6486;51.034;5.262;2023-07-28T12:52:46;23.30;87.60
12839;DHT22;6486;51.034;5.262;2023-07-28T12:55:11;23.20;87.60
12839;DHT22;6486;51.034;5.262;2023-07-28T12:57:37;23.30;87.80
12839;DHT22;6486;51.034;5.262;2023-07-28T13:00:03;23.40;87.80
12839;DHT22;6486;51.034;5.262;2023-07-28T13:02:39;23.50;87.40
12839;DHT22;6486;51.034;5.262;2023-07-28T13:05:05;23.60;87.30
12839;DHT22;6486;51.034;5.262;2023-07-28T13:07:30;23.60;86.80
12839;DHT22;6486;51.034;5.262;2023-07-28T13:09:56;23.70;87.30
12839;DHT22;6486;51.034;5.262;2023-07-28T13:12:22;23.70;86.50
12839;DHT22;6486;51.034;5.262;2023-07-28T13:14:47;23.80;86.50
12839;DHT22;6486;51.034;5.262;2023-07-28T13:17:13;23.80;86.10
12839;DHT22;6486;51.034;5.262;2023-07-28T13:19:40;23.70;85.70
12839;DHT22;6486;51.034;5.262;2023-07-28T13:22:05;23.60;85.20
12839;DHT22;6486;51.034;5.262;2023-07-28T13:24:31;23.60;85.20
12839;DHT22;6486;51.034;5.262;2023-07-28T13:26:57;23.60;85.30
12839;DHT22;6486;51.034;5.262;2023-07-28T13:29:23;23.60;84.80
12839;DHT22;6486;51.034;5.262;2023-07-28T13:31:49;23.60;84.90
12839;DHT22;6486;51.034;5.262;2023-07-28T13:34:14;23.60;84.80
12839;DHT22;6486;51.034;5.262;2023-07-28T13:36:40;23.70;84.70
12839;DHT22;6486;51.034;5.262;2023-07-28T13:39:06;23.70;84.00
12839;DHT22;6486;51.034;5.262;2023-07-28T13:41:31;23.70;84.00
12839;DHT22;6486;51.034;5.262;2023-07-28T13:43:57;23.70;83.90
12839;DHT22;6486;51.034;5.262;2023-07-28T13:46:23;23.70;83.90
12839;DHT22;6486;51.034;5.262;2023-07-28T13:48:48;23.80;84.00
12839;DHT22;6486;51.034;5.262;2023-07-28T13:51:14;23.80;83.90
12839;DHT22;6486;51.034;5.262;2023-07-28T13:53:39;23.90;83.80
12839;DHT22;6486;51.034;5.262;2023-07-28T13:56:05;24.00;83.80
12839;DHT22;6486;51.034;5.262;2023-07-28T13:58:30;24.10;83.50
12839;DHT22;6486;51.034;5.262;2023-07-28T14:00:56;24.20;83.20
12839;DHT22;6486;51.034;5.262;2023-07-28T14:03:22;24.30;83.00
12839;DHT22;6486;51.034;5.262;2023-07-28T14:05:47;24.40;82.80
12839;DHT22;6486;51.034;5.262;2023-07-28T14:08:14;24.40;82.50
12839;DHT22;6486;51.034;5.262;2023-07-28T14:10:44;24.40;82.30
12839;DHT22;6486;51.034;5.262;2023-07-28T14:13:10;24.40;82.20
12839;DHT22;6486;51.034;5.262;2023-07-28T14:15:35;24.70;82.20
12839;DHT22;6486;51.034;5.262;2023-07-28T14:18:01;25.10;81.90
12839;DHT22;6486;51.034;5.262;2023-07-28T14:20:26;25.40;81.50
12839;DHT22;6486;51.034;5.262;2023-07-28T14:22:52;25.70;80.80
12839;DHT22;6486;51.034;5.262;2023-07-28T14:25:17;26.00;80.20
12839;DHT22;6486;51.034;5.262;2023-07-28T14:27:43;26.40;79.40
12839;DHT22;6486;51.034;5.262;2023-07-28T14:30:09;26.40;78.00
12839;DHT22;6486;51.034;5.262;2023-07-28T14:32:35;26.30;76.20
12839;DHT22;6486;51.034;5.262;2023-07-28T14:35:00;26.20;75.80
12839;DHT22;6486;51.034;5.262;2023-07-28T14:37:26;26.10;74.90
12839;DHT22;6486;51.034;5.262;2023-07-28T14:39:51;25.90;74.30
12839;DHT22;6486;51.034;5.262;2023-07-28T14:42:18;25.80;74.60
12839;DHT22;6486;51.034;5.262;2023-07-28T14:44:44;25.60;74.40
12839;DHT22;6486;51.034;5.262;2023-07-28T14:47:09;25.50;74.20
12839;DHT22;6486;51.034;5.262;2023-07-28T14:49:35;25.70;74.30
12839;DHT22;6486;51.034;5.262;2023-07-28T14:52:00;25.80;74.00
12839;DHT22;6486;51.034;5.262;2023-07-28T14:54:26;25.90;73.90
12839;DHT22;6486;51.034;5.262;2023-07-28T14:56:52;25.90;73.00
12839;DHT22;6486;51.034;5.262;2023-07-28T14:59:17;25.80;72.40
12839;DHT22;6486;51.034;5.262;2023-07-28T15:01:43;25.80;72.00
12839;DHT22;6486;51.034;5.262;2023-07-28T15:04:09;25.80;71.40
12839;DHT22;6486;51.034;5.262;2023-07-28T15:06:36;25.80;70.50
12839;DHT22;6486;51.034;5.262;2023-07-28T15:09:02;25.80;69.10
12839;DHT22;6486;51.034;5.262;2023-07-28T15:11:28;25.80;69.30
12839;DHT22;6486;51.034;5.262;2023-07-28T15:13:54;25.80;69.10
12839;DHT22;6486;51.034;5.262;2023-07-28T15:16:19;25.70;68.70
12839;DHT22;6486;51.034;5.262;2023-07-28T15:18:45;25.70;69.20
12839;DHT22;6486;51.034;5.262;2023-07-28T15:21:10;25.60;68.70
12839;DHT22;6486;51.034;5.262;2023-07-28T15:23:37;25.80;68.80
12839;DHT22;6486;51.034;5.262;2023-07-28T15:26:03;25.90;68.70
12839;DHT22;6486;51.034;5.262;2023-07-28T15:28:28;25.90;68.20
12839;DHT22;6486;51.034;5.262;2023-07-28T15:30:54;26.00;68.00
12839;DHT22;6486;51.034;5.262;2023-07-28T15:33:21;26.10;67.50
12839;DHT22;6486;51.034;5.262;2023-07-28T15:35:54;26.30;67.40
12839;DHT22;6486;51.034;5.262;2023-07-28T15:38:19;26.20;66.60
12839;DHT22;6486;51.034;5.262;2023-07-28T15:40:45;26.20;66.80
12839;DHT22;6486;51.034;5.262;2023-07-28T15:43:11;26.20;67.30
12839;DHT22;6486;51.034;5.262;2023-07-28T15:45:36;26.50;67.90
12839;DHT22;6486;51.034;5.262;2023-07-28T15:48:02;26.70;67.70
12839;DHT22;6486;51.034;5.262;2023-07-28T15:50:28;26.90;67.10
12839;DHT22;6486;51.034;5.262;2023-07-28T15:52:53;27.10;66.90